Time;durP1;ratioP1;P1;durP2;ratioP2;P2;SDS_P1;SDS_P2;PMS_P1;PMS_P2;Temp;Humidity;BMP_temperature;BMP_pressure;BME280_temperature;BME280_humidity;BME280_pressure;Samples;Min_cycle;Max_cycle;Signal;HPM_P1;HPM_P2
2022/07/16 00:01:26;;;;;;;6.33;2.27;;;;;;;14.38;51.91;99363.63;1709815;84;20948;-41
2022/07/16 00:04:00;;;;;;;6.90;2.62;;;;;;;14.36;52.20;99360.24;1707861;84;21035;-45
2022/07/16 00:06:28;;;;;;;8.78;2.50;;;;;;;14.34;52.00;99364.80;1720208;82;20979;-40
2022/07/16 00:08:55;;;;;;;5.15;2.47;;;;;;;14.32;52.16;99360.58;1717086;83;20964;-38
2022/07/16 00:11:22;;;;;;;5.78;2.70;;;;;;;14.31;52.36;99362.36;1706550;84;21485;-42
2022/07/16 00:13:48;;;;;;;7.55;2.42;;;;;;;14.33;52.50;99362.25;1709920;83;20956;-42
2022/07/16 00:16:15;;;;;;;8.28;3.00;;;;;;;14.32;52.45;99367.20;1706627;84;21044;-43
2022/07/16 00:21:26;;;;;;;6.72;2.33;;;;;;;14.30;52.63;99358.04;1706469;84;20973;-43
2022/07/16 00:23:53;;;;;;;5.00;2.70;;;;;;;14.26;52.51;99363.18;1709848;83;20982;-41
2022/07/16 00:26:19;;;;;;;5.05;2.52;;;;;;;14.25;53.08;99363.28;1706473;83;21703;-46
2022/07/16 00:28:45;;;;;;;7.08;2.72;;;;;;;14.23;52.79;99355.45;1709768;83;21043;-40
2022/07/16 00:31:11;;;;;;;5.17;2.50;;;;;;;14.18;52.72;99356.23;1706453;83;20991;-45
2022/07/16 00:33:37;;;;;;;6.22;3.00;;;;;;;14.16;52.89;99358.98;1709703;83;21418;-41
2022/07/16 00:36:03;;;;;;;10.78;3.00;;;;;;;14.15;53.09;99354.66;1706418;83;21024;-41
2022/07/16 00:38:29;;;;;;;5.10;2.50;;;;;;;14.12;53.04;99354.87;1709954;83;21031;-44
2022/07/16 00:40:55;;;;;;;10.55;2.50;;;;;;;14.10;53.12;99353.27;1706418;84;21000;-44
2022/07/16 00:43:21;;;;;;;9.48;2.42;;;;;;;14.10;53.01;99351.48;1709700;83;20988;-43
2022/07/16 00:45:47;;;;;;;5.92;2.47;;;;;;;14.12;52.80;99352.22;1706414;83;20976;-43
2022/07/16 00:48:13;;;;;;;10.10;2.75;;;;;;;14.08;53.07;99345.91;1721885;82;21020;-43
2022/07/16 00:50:40;;;;;;;4.15;2.22;;;;;;;14.09;53.25;99356.39;1717166;83;20992;-42
2022/07/16 00:53:09;;;;;;;9.73;2.20;;;;;;;14.12;53.15;99347.42;1716650;82;21039;-41
2022/07/16 00:55:35;;;;;;;5.03;2.52;;;;;;;14.15;52.97;99345.86;1716541;83;20995;-44
2022/07/16 00:58:02;;;;;;;6.50;2.45;;;;;;;14.17;53.11;99350.56;1716523;83;21000;-42
2022/07/16 01:00:29;;;;;;;7.12;2.30;;;;;;;14.16;53.12;99351.53;1716607;83;21512;-43
2022/07/16 01:02:57;;;;;;;5.10;2.42;;;;;;;14.13;53.04;99349.93;1716740;83;21035;-41
2022/07/16 01:05:24;;;;;;;8.50;2.75;;;;;;;14.09;53.38;99350.27;1716484;83;21116;-40
2022/07/16 01:07:50;;;;;;;8.30;2.45;;;;;;;14.07;53.67;99352.17;1716555;83;21027;-40
2022/07/16 01:10:18;;;;;;;7.62;2.15;;;;;;;14.06;53.57;99347.38;1716519;83;21035;-40
2022/07/16 01:12:45;;;;;;;6.00;2.08;;;;;;;14.08;53.74;99342.81;1716513;83;21156;-40
2022/07/16 01:15:13;;;;;;;7.30;2.22;;;;;;;14.08;53.58;99341.95;1716609;83;20972;-40
2022/07/16 01:17:38;;;;;;;;;;;;;;;14.06;53.69;99343.41;1719092;83;21548;-41
2022/07/16 01:20:06;;;;;;;6.65;2.42;;;;;;;14.05;54.52;99342.18;1716534;83;20109;-41
2022/07/16 01:22:32;;;;;;;7.37;2.65;;;;;;;14.08;53.73;99339.30;1716475;83;21000;-42
2022/07/16 01:24:58;;;;;;;9.10;2.58;;;;;;;14.03;53.79;99331.70;1694102;83;21039;-37
2022/07/16 01:27:24;;;;;;;14.73;3.00;;;;;;;14.02;53.65;99333.97;1716553;83;21008;-40
2022/07/16 01:29:51;;;;;;;8.50;2.70;;;;;;;14.01;53.96;99336.26;1716480;83;20980;-40
2022/07/16 01:32:16;;;;;;;8.25;2.90;;;;;;;14.04;54.10;99334.70;1716509;83;20992;-41
2022/07/16 01:34:42;;;;;;;10.32;2.30;;;;;;;14.06;54.07;99338.11;1716478;83;21513;-39
2022/07/16 01:37:09;;;;;;;5.78;2.27;;;;;;;14.09;54.24;99329.11;1716578;83;21132;-39
2022/07/16 01:39:39;;;;;;;6.05;2.30;;;;;;;14.10;53.99;99333.43;1716627;83;20976;-45
2022/07/16 01:42:07;;;;;;;9.68;2.50;;;;;;;14.13;53.86;99323.97;1716453;83;21039;-40
2022/07/16 01:44:35;;;;;;;9.05;2.30;;;;;;;14.13;53.87;99330.58;1716529;83;20991;-39
2022/07/16 01:47:03;;;;;;;5.15;2.37;;;;;;;14.14;53.92;99331.80;1716510;83;21003;-41
2022/07/16 01:49:35;;;;;;;12.98;2.55;;;;;;;14.15;53.71;99324.70;1711678;83;21437;-43
2022/07/16 01:52:17;;;;;;;4.72;2.37;;;;;;;14.15;53.74;99333.96;1688933;84;21509;-40
2022/07/16 01:54:48;;;;;;;7.17;2.20;;;;;;;14.14;53.64;99323.03;1688576;85;21019;-43
2022/07/16 01:57:15;;;;;;;8.48;2.52;;;;;;;14.13;53.86;99325.30;1688833;84;20984;-45
2022/07/16 01:59:41;;;;;;;3.80;2.40;;;;;;;14.11;53.88;99325.39;1688975;85;20988;-43
2022/07/16 02:02:08;;;;;;;3.35;1.92;;;;;;;14.09;54.27;99331.27;1688841;83;20988;-45
2022/07/16 02:04:34;;;;;;;9.03;2.58;;;;;;;14.09;54.12;99319.38;1688988;84;20971;-42
2022/07/16 02:07:00;;;;;;;5.75;2.52;;;;;;;14.09;54.12;99318.53;1688866;85;21029;-46
2022/07/16 02:09:26;;;;;;;6.83;2.10;;;;;;;14.11;54.10;99321.42;1688788;85;21003;-45
2022/07/16 02:11:52;;;;;;;7.00;2.47;;;;;;;14.10;54.28;99313.14;1688831;84;20999;-47
2022/07/16 02:14:18;;;;;;;6.62;2.52;;;;;;;14.10;54.34;99306.53;1688848;85;20972;-42
2022/07/16 02:16:44;;;;;;;5.72;2.50;;;;;;;14.10;55.03;99310.95;1688834;84;21023;-44
2022/07/16 02:19:10;;;;;;;11.03;2.90;;;;;;;14.11;54.37;99313.49;1688882;85;21152;-43
2022/07/16 02:21:36;;;;;;;10.28;2.42;;;;;;;14.12;54.33;99311.72;1688900;84;21521;-46
2022/07/16 02:24:03;;;;;;;3.25;2.12;;;;;;;14.13;54.32;99311.59;1688882;85;21027;-48
2022/07/16 02:26:29;;;;;;;8.38;2.20;;;;;;;14.12;54.33;99311.23;1688844;84;21525;-42
2022/07/16 02:28:55;;;;;;;5.78;2.30;;;;;;;14.04;54.58;99304.30;1688895;83;21032;-43
2022/07/16 02:31:21;;;;;;;4.15;1.90;;;;;;;14.08;54.32;99307.57;1688883;84;21004;-38
2022/07/16 02:33:47;;;;;;;4.20;2.00;;;;;;;14.01;54.68;99293.95;1688847;85;21442;-46
2022/07/16 02:36:13;;;;;;;6.25;2.85;;;;;;;14.03;54.60;99296.50;1689106;84;20984;-43
2022/07/16 02:38:39;;;;;;;8.15;2.40;;;;;;;13.99;54.89;99297.19;1688859;85;21000;-44
2022/07/16 02:43:28;;;;;;;6.30;2.55;;;;;;;14.05;55.12;99294.59;1800858;79;22261;-41
2022/07/16 02:45:54;;;;;;;9.93;2.30;;;;;;;14.04;54.67;99296.36;1761726;80;21062;-42
2022/07/16 02:48:19;;;;;;;6.92;2.27;;;;;;;14.00;54.93;99298.38;1761830;81;21007;-41
2022/07/16 02:50:45;;;;;;;4.67;2.20;;;;;;;14.02;54.90;99298.27;1761831;81;20995;-45
2022/07/16 02:53:11;;;;;;;7.60;1.92;;;;;;;14.05;54.72;99301.20;1761840;81;21412;-41
2022/07/16 02:55:37;;;;;;;10.13;2.50;;;;;;;14.03;55.08;99301.30;1761804;81;20990;-43
2022/07/16 02:58:04;;;;;;;2.95;2.05;;;;;;;14.03;54.85;99301.30;1761798;81;20964;-47
2022/07/16 03:00:30;;;;;;;10.63;2.30;;;;;;;14.03;54.98;99296.50;1762072;81;20986;-44
2022/07/16 03:02:57;;;;;;;5.25;2.30;;;;;;;13.98;55.20;99297.64;1761839;81;20968;-41
2022/07/16 03:05:24;;;;;;;6.65;2.37;;;;;;;14.01;54.98;99290.83;1761999;81;21372;-42
2022/07/16 03:07:50;;;;;;;5.07;2.40;;;;;;;14.03;55.16;99290.72;1762053;81;21598;-41
2022/07/16 03:10:16;;;;;;;6.17;2.30;;;;;;;14.00;55.47;99294.89;1761784;81;20995;-41
2022/07/16 03:12:42;;;;;;;4.20;2.20;;;;;;;14.02;55.25;99304.88;1761794;81;20990;-40
2022/07/16 03:15:11;;;;;;;5.33;2.12;;;;;;;14.01;55.31;99295.27;1761465;80;21042;-42
2022/07/16 03:17:37;;;;;;;5.35;2.45;;;;;;;13.93;55.72;99296.27;1761710;81;20991;-44
2022/07/16 03:20:04;;;;;;;6.92;2.20;;;;;;;13.95;55.56;99290.39;1761774;81;21531;-38
2022/07/16 03:22:30;;;;;;;4.55;2.22;;;;;;;13.98;55.40;99294.16;1761887;81;21139;-40
2022/07/16 03:24:55;;;;;;;4.50;2.30;;;;;;;13.98;55.77;99291.52;1761843;81;20995;-41
2022/07/16 03:27:21;;;;;;;6.60;2.52;;;;;;;14.01;55.90;99296.59;1761710;81;20995;-41
2022/07/16 03:29:47;;;;;;;5.62;2.12;;;;;;;14.01;56.10;99297.44;1761680;81;20995;-42
2022/07/16 03:32:13;;;;;;;8.98;2.22;;;;;;;14.02;55.92;99292.98;1761716;81;21048;-42
2022/07/16 03:34:38;;;;;;;5.70;2.35;;;;;;;14.03;55.93;99296.02;1761955;81;20995;-39
2022/07/16 03:37:04;;;;;;;7.30;2.37;;;;;;;14.03;56.39;99297.33;1761748;81;21034;-44
2022/07/16 03:39:30;;;;;;;10.35;2.35;;;;;;;14.04;56.33;99293.72;1761740;81;21476;-38
2022/07/16 03:41:56;;;;;;;7.20;2.33;;;;;;;14.07;56.30;99293.52;1758188;81;21004;-42
2022/07/16 03:44:21;;;;;;;8.15;2.20;;;;;;;14.07;56.10;99290.88;1748598;81;20983;-42
2022/07/16 03:46:47;;;;;;;8.28;2.15;;;;;;;14.08;56.25;99287.28;1748682;82;21423;-39
2022/07/16 03:49:13;;;;;;;7.00;2.35;;;;;;;14.08;56.38;99302.28;1748679;81;20991;-42
2022/07/16 03:51:38;;;;;;;8.38;2.20;;;;;;;14.12;56.27;99302.46;1748635;81;20988;-41
2022/07/16 03:54:05;;;;;;;2.87;1.65;;;;;;;14.11;56.03;99308.20;1748247;81;20996;-41
2022/07/16 03:56:31;;;;;;;11.80;2.33;;;;;;;14.15;55.99;99300.45;1748165;82;21030;-40
2022/07/16 03:58:57;;;;;;;10.50;1.98;;;;;;;14.18;56.05;99289.63;1748302;81;20983;-40
2022/07/16 04:01:24;;;;;;;4.83;1.92;;;;;;;14.23;56.22;99281.88;1748037;81;21040;-45
2022/07/16 04:03:50;;;;;;;5.37;1.95;;;;;;;14.25;56.92;99277.32;1748147;82;20995;-42
2022/07/16 04:06:16;;;;;;;8.45;2.30;;;;;;;14.27;56.29;99282.02;1748043;82;20995;-43
2022/07/16 04:08:42;;;;;;;6.03;2.20;;;;;;;14.31;56.66;99279.52;1748112;81;21453;-44
2022/07/16 04:11:08;;;;;;;8.58;2.35;;;;;;;14.35;56.61;99279.20;1748156;81;21134;-40
2022/07/16 04:13:37;;;;;;;8.60;2.75;;;;;;;14.36;56.71;99273.43;1748275;81;20996;-41
2022/07/16 04:16:05;;;;;;;5.45;2.35;;;;;;;14.37;56.49;99277.30;1748049;82;21028;-45
2022/07/16 04:18:31;;;;;;;;;;;;;;;14.39;56.69;99278.52;1750684;81;21042;-39
2022/07/16 04:20:57;;;;;;;7.00;2.90;;;;;;;14.37;57.44;99277.30;1747989;81;20100;-39
2022/07/16 04:23:22;;;;;;;5.55;2.20;;;;;;;14.34;56.62;99277.98;1748154;81;20976;-44
2022/07/16 04:25:48;;;;;;;12.82;3.00;;;;;;;14.38;56.60;99276.32;1748038;81;20991;-41
2022/07/16 04:28:14;;;;;;;8.68;2.90;;;;;;;14.42;57.02;99280.92;1747973;81;21110;-43
2022/07/16 04:30:40;;;;;;;4.03;1.98;;;;;;;14.44;56.87;99280.81;1748042;81;21042;-39
2022/07/16 04:33:06;;;;;;;10.75;3.42;;;;;;;14.46;56.58;99278.90;1748167;81;21116;-41
2022/07/16 04:35:31;;;;;;;6.42;3.10;;;;;;;14.42;56.63;99282.23;1748080;81;20988;-38
2022/07/16 04:37:57;;;;;;;10.15;2.90;;;;;;;14.45;56.63;99283.35;1748127;81;21031;-42
2022/07/16 04:40:23;;;;;;;4.37;2.40;;;;;;;14.45;56.87;99281.20;1748022;81;21028;-44
2022/07/16 04:42:48;;;;;;;12.65;2.65;;;;;;;14.41;56.79;99280.56;1748015;81;21016;-42
2022/07/16 04:45:14;;;;;;;5.85;2.70;;;;;;;14.40;57.32;99280.19;1748129;81;21468;-42
2022/07/16 04:47:40;;;;;;;4.92;2.70;;;;;;;14.42;57.07;99282.23;1748069;82;21599;-38
2022/07/16 04:50:08;;;;;;;7.50;2.98;;;;;;;14.43;56.94;99281.78;1748077;81;21492;-41
2022/07/16 04:52:33;;;;;;;;;;;;;;;14.45;57.25;99279.39;1750627;81;21024;-43
2022/07/16 04:55:00;;;;;;;6.55;2.40;;;;;;;14.46;57.21;99273.16;1748078;82;20161;-39
2022/07/16 04:57:26;;;;;;;2.60;1.98;;;;;;;14.46;57.21;99273.16;1748120;82;20999;-39
2022/07/16 04:59:53;;;;;;;4.80;2.45;;;;;;;14.45;57.95;99272.77;1748000;82;20996;-41
2022/07/16 05:05:04;;;;;;;9.35;2.30;;;;;;;14.48;57.33;99268.59;1747961;82;21091;-41
2022/07/16 05:07:30;;;;;;;4.65;2.30;;;;;;;14.52;57.32;99263.92;1748084;82;21611;-38
2022/07/16 05:09:55;;;;;;;3.80;2.20;;;;;;;14.57;57.10;99263.09;1748093;81;20964;-43
2022/07/16 05:12:21;;;;;;;5.92;2.35;;;;;;;14.61;57.27;99264.61;1748014;81;20957;-41
2022/07/16 05:14:47;;;;;;;4.67;2.05;;;;;;;14.65;57.01;99267.88;1748081;81;21576;-41
2022/07/16 05:17:13;;;;;;;7.30;2.20;;;;;;;14.69;56.98;99266.70;1748098;81;21469;-41
2022/07/16 05:19:38;;;;;;;6.90;2.35;;;;;;;14.73;57.29;99265.50;1748015;81;21472;-42
2022/07/16 05:22:05;;;;;;;5.42;2.20;;;;;;;14.76;56.99;99266.62;1743627;81;21472;-40
2022/07/16 05:24:32;;;;;;;4.75;2.17;;;;;;;14.86;56.94;99265.00;1739757;82;20965;-36
2022/07/16 05:26:59;;;;;;;4.78;2.05;;;;;;;14.91;56.70;99262.83;1739653;82;21454;-42
2022/07/16 05:29:25;;;;;;;7.78;2.05;;;;;;;14.94;56.49;99259.97;1739660;82;21093;-39
2022/07/16 05:31:51;;;;;;;4.53;2.10;;;;;;;14.97;56.40;99258.42;1739496;82;20976;-39
2022/07/16 05:34:17;;;;;;;10.10;2.72;;;;;;;14.96;56.29;99255.39;1739510;82;21015;-44
2022/07/16 05:36:43;;;;;;;7.25;2.80;;;;;;;14.90;56.41;99253.21;1739409;81;21031;-43
2022/07/16 05:39:08;;;;;;;9.60;2.22;;;;;;;14.92;56.47;99254.43;1739733;82;21041;-43
2022/07/16 05:41:34;;;;;;;6.40;2.37;;;;;;;15.00;56.31;99252.53;1739471;82;20996;-43
2022/07/16 05:44:01;;;;;;;8.00;2.15;;;;;;;15.09;56.66;99254.48;1752040;81;21022;-46
2022/07/16 05:46:27;;;;;;;6.83;2.40;;;;;;;15.17;56.30;99248.13;1753765;82;20987;-46
2022/07/16 05:48:53;;;;;;;7.42;2.00;;;;;;;15.19;55.66;99248.88;1753496;82;21488;-42
2022/07/16 05:51:19;;;;;;;6.33;2.30;;;;;;;15.27;55.80;99247.80;1753474;80;21476;-45
2022/07/16 05:53:45;;;;;;;3.47;1.87;;;;;;;15.36;55.76;99247.59;1753637;81;21471;-45
2022/07/16 05:56:10;;;;;;;6.55;2.27;;;;;;;15.43;55.64;99246.66;1753594;82;21460;-43
2022/07/16 05:58:36;;;;;;;5.67;2.33;;;;;;;15.50;55.25;99242.09;1753621;82;21023;-41
2022/07/16 06:01:02;;;;;;;7.40;2.10;;;;;;;15.55;55.08;99243.91;1753628;82;20995;-43
2022/07/16 06:03:28;;;;;;;4.47;1.92;;;;;;;15.54;55.00;99241.38;1753567;80;21512;-41
2022/07/16 06:05:53;;;;;;;4.80;1.95;;;;;;;15.60;54.97;99243.55;1753594;82;21519;-39
2022/07/16 06:08:19;;;;;;;4.42;1.75;;;;;;;15.65;54.92;99242.72;1753618;82;21626;-42
2022/07/16 06:10:45;;;;;;;3.62;1.80;;;;;;;15.64;54.79;99234.88;1753662;81;20995;-43
2022/07/16 06:13:11;;;;;;;2.85;1.85;;;;;;;15.79;54.87;99243.48;1753574;82;21521;-44
2022/07/16 06:15:38;;;;;;;14.50;3.27;;;;;;;15.82;54.70;99231.31;1753503;82;21434;-42
2022/07/16 06:18:04;;;;;;;6.75;2.20;;;;;;;15.93;54.53;99239.27;1753574;82;21034;-38
2022/07/16 06:20:30;;;;;;;8.40;1.98;;;;;;;15.98;54.45;99234.45;1753521;82;21441;-40
2022/07/16 06:22:56;;;;;;;5.62;1.80;;;;;;;16.09;54.20;99231.80;1753472;81;21062;-41
2022/07/16 06:25:23;;;;;;;2.83;1.90;;;;;;;16.16;54.36;99232.16;1753824;82;21007;-39
2022/07/16 06:27:49;;;;;;;3.55;1.70;;;;;;;16.23;53.93;99235.18;1753599;82;21455;-44
2022/07/16 06:30:15;;;;;;;4.92;1.80;;;;;;;16.22;53.64;99236.13;1753590;82;21026;-40
2022/07/16 06:32:42;;;;;;;3.55;1.77;;;;;;;16.32;53.80;99242.41;1753428;82;21015;-41
2022/07/16 06:35:09;;;;;;;7.65;2.15;;;;;;;16.43;53.83;99237.56;1753499;81;21044;-41
2022/07/16 06:37:34;;;;;;;6.83;2.20;;;;;;;16.50;53.46;99229.47;1753788;82;21042;-40
2022/07/16 06:40:00;;;;;;;7.80;2.10;;;;;;;16.57;53.45;99234.64;1753464;81;20988;-40
2022/07/16 06:42:26;;;;;;;4.60;1.90;;;;;;;16.63;53.34;99231.47;1751706;81;20984;-41
2022/07/16 06:44:52;;;;;;;6.25;1.90;;;;;;;16.70;53.23;99230.01;1739478;82;20964;-42
2022/07/16 06:47:18;;;;;;;3.58;1.60;;;;;;;16.81;53.37;99237.09;1739470;82;20988;-41
2022/07/16 06:49:43;;;;;;;3.83;1.67;;;;;;;16.91;52.96;99237.20;1739389;82;20995;-40
2022/07/16 06:52:09;;;;;;;10.48;1.98;;;;;;;17.03;52.92;99231.37;1739626;81;20968;-41
2022/07/16 06:54:35;;;;;;;3.08;1.77;;;;;;;17.15;52.83;99237.47;1739455;82;20999;-43
2022/07/16 06:57:01;;;;;;;4.83;1.80;;;;;;;17.22;52.65;99226.68;1739456;81;21039;-43
2022/07/16 06:59:26;;;;;;;4.42;1.65;;;;;;;17.28;52.36;99230.14;1739487;82;21000;-43
2022/07/16 07:01:52;;;;;;;3.67;1.80;;;;;;;17.25;52.51;99230.42;1739639;82;20973;-42
2022/07/16 07:04:18;;;;;;;5.08;1.47;;;;;;;17.33;52.10;99224.45;1739596;82;21027;-45
2022/07/16 07:06:44;;;;;;;9.03;1.90;;;;;;;17.37;51.97;99224.54;1739451;82;21023;-43
2022/07/16 07:09:09;;;;;;;8.50;1.90;;;;;;;17.31;51.82;99222.41;1739442;82;20988;-39
2022/07/16 07:11:36;;;;;;;6.45;1.70;;;;;;;17.35;51.69;99220.67;1739467;81;21043;-42
2022/07/16 07:14:02;;;;;;;3.15;1.70;;;;;;;17.40;51.61;99217.64;1739717;82;20968;-38
2022/07/16 07:16:28;;;;;;;6.55;1.65;;;;;;;17.46;51.86;99215.78;1739497;82;21501;-42
2022/07/16 07:18:53;;;;;;;4.75;1.62;;;;;;;17.54;51.55;99218.64;1739391;82;21497;-46
2022/07/16 07:21:19;;;;;;;5.53;1.85;;;;;;;17.53;51.09;99212.95;1739429;82;20999;-39
2022/07/16 07:23:45;;;;;;;9.25;1.70;;;;;;;17.55;51.12;99207.02;1739474;82;20991;-42
2022/07/16 07:26:11;;;;;;;4.65;1.95;;;;;;;17.60;50.81;99203.48;1739502;82;21180;-41
2022/07/16 07:28:37;;;;;;;3.47;1.20;;;;;;;17.63;50.09;99206.39;1739599;82;20992;-40
2022/07/16 07:31:03;;;;;;;3.33;1.30;;;;;;;17.59;49.72;99199.63;1739740;82;21439;-41
2022/07/16 07:33:29;;;;;;;6.17;1.60;;;;;;;17.61;49.29;99186.57;1739581;82;20992;-42
2022/07/16 07:35:55;;;;;;;5.70;1.50;;;;;;;17.64;49.63;99190.30;1739625;82;20981;-43
2022/07/16 07:38:20;;;;;;;4.65;1.42;;;;;;;17.75;49.75;99189.34;1739782;81;20957;-40
2022/07/16 07:40:47;;;;;;;7.30;1.47;;;;;;;17.76;49.35;99187.05;1739603;82;21027;-42
2022/07/16 07:43:13;;;;;;;7.67;1.67;;;;;;;17.87;49.26;99187.48;1739766;82;21012;-42
2022/07/16 07:45:40;;;;;;;4.22;1.40;;;;;;;17.91;48.72;99190.22;1739653;81;21004;-41
2022/07/16 07:48:05;;;;;;;7.90;1.60;;;;;;;17.93;47.64;99198.91;1739658;82;21516;-42
2022/07/16 07:50:32;;;;;;;7.65;1.22;;;;;;;17.96;47.99;99184.02;1739671;82;21028;-46
2022/07/16 07:52:57;;;;;;;3.60;1.25;;;;;;;18.02;47.79;99183.95;1739661;82;21453;-43
2022/07/16 07:55:23;;;;;;;3.10;1.42;;;;;;;18.10;47.88;99191.26;1739631;82;20996;-44
2022/07/16 07:57:49;;;;;;;4.97;1.22;;;;;;;18.14;46.80;99171.41;1739663;82;21353;-41
2022/07/16 08:00:15;;;;;;;2.47;1.10;;;;;;;18.20;46.76;99182.33;1739645;82;21043;-43
2022/07/16 08:02:45;;;;;;;6.17;1.27;;;;;;;18.30;45.97;99179.70;1739502;81;21514;-38
2022/07/16 08:05:12;;;;;;;7.87;1.20;;;;;;;18.44;45.54;99165.64;1739582;82;20984;-42
2022/07/16 08:07:39;;;;;;;4.47;1.20;;;;;;;18.52;45.63;99165.30;1739729;82;20987;-40
2022/07/16 08:10:06;;;;;;;2.80;1.35;;;;;;;18.57;45.48;99160.41;1739601;82;20948;-43
2022/07/16 08:12:32;;;;;;;1.77;1.30;;;;;;;18.74;45.56;99160.69;1739847;82;20952;-42
2022/07/16 08:14:58;;;;;;;1.92;1.10;;;;;;;18.87;44.16;99171.09;1739571;82;21019;-46
2022/07/16 08:17:23;;;;;;;5.03;1.20;;;;;;;19.03;43.62;99155.84;1739617;82;20984;-45
2022/07/16 08:19:49;;;;;;;4.47;1.60;;;;;;;19.24;44.75;99159.68;1739578;82;20996;-39
2022/07/16 08:22:15;;;;;;;3.42;1.27;;;;;;;19.38;43.38;99165.89;1739548;82;20984;-42
2022/07/16 08:27:25;;;;;;;3.08;1.30;;;;;;;19.54;42.89;99156.80;1739568;81;21452;-43
2022/07/16 08:29:52;;;;;;;7.15;1.75;;;;;;;19.69;43.33;99154.99;1739502;82;21003;-42
2022/07/16 08:32:18;;;;;;;9.85;1.60;;;;;;;19.77;43.21;99151.11;1739862;82;20968;-42
2022/07/16 08:34:44;;;;;;;5.03;1.30;;;;;;;19.66;42.31;99152.61;1739266;82;21004;-39
2022/07/16 08:37:11;;;;;;;3.72;1.35;;;;;;;19.66;42.80;99149.44;1738400;82;21595;-43
2022/07/16 08:39:44;;;;;;;2.70;1.40;;;;;;;19.58;42.97;99159.18;1738528;82;21075;-42
2022/07/16 08:42:12;;;;;;;4.87;1.30;;;;;;;19.68;43.41;99152.83;1739500;82;21008;-41
2022/07/16 08:44:39;;;;;;;;;;;;;;;19.79;43.35;99157.64;1748275;81;21059;-40
2022/07/16 08:47:11;;;;;;;7.05;1.52;;;;;;;19.67;41.87;99151.12;1747442;81;20129;-44
2022/07/16 08:49:38;;;;;;;2.87;1.20;;;;;;;19.69;42.47;99157.16;1754751;80;21062;-46
2022/07/16 08:52:07;;;;;;;3.77;1.40;;;;;;;19.63;42.53;99152.89;1756061;81;20996;-42
2022/07/16 08:54:34;;;;;;;5.35;1.25;;;;;;;19.43;41.64;99164.11;1755808;81;21011;-41
2022/07/16 08:56:59;;;;;;;5.40;1.27;;;;;;;19.50;42.62;99159.41;1756202;81;21011;-42
2022/07/16 08:59:29;;;;;;;4.70;1.35;;;;;;;19.50;42.62;99158.08;1756173;82;20992;-39
2022/07/16 09:01:55;;;;;;;6.40;2.10;;;;;;;19.46;42.75;99158.50;1755942;81;20988;-41
2022/07/16 09:04:21;;;;;;;10.18;1.82;;;;;;;19.48;42.76;99172.52;1756045;82;21449;-46
2022/07/16 09:06:47;;;;;;;3.00;1.40;;;;;;;19.43;42.69;99158.31;1752593;82;20967;-43
2022/07/16 09:09:15;;;;;;;5.67;1.10;;;;;;;19.47;42.50;99156.20;1747497;82;20964;-39
2022/07/16 09:11:43;;;;;;;2.62;1.20;;;;;;;19.59;42.28;99159.01;1747700;82;21018;-43
2022/07/16 09:14:18;;;;;;;3.87;1.20;;;;;;;19.73;42.76;99155.06;1747489;82;21010;-42
2022/07/16 09:16:50;;;;;;;2.80;1.00;;;;;;;19.81;41.06;99159.19;1747840;82;20995;-42
2022/07/16 09:19:23;;;;;;;1.57;1.05;;;;;;;20.00;41.87;99158.24;1747441;82;21472;-40
2022/07/16 09:22:03;;;;;;;5.87;0.98;;;;;;;19.93;41.14;99163.33;1747385;82;21512;-40
2022/07/16 09:24:47;;;;;;;5.00;1.30;;;;;;;19.92;40.69;99149.65;1747496;82;21026;-42
2022/07/16 09:27:20;;;;;;;2.83;1.10;;;;;;;20.05;41.27;99150.64;1747741;82;21032;-40
2022/07/16 09:29:58;;;;;;;3.33;1.00;;;;;;;20.23;40.77;99157.82;1718250;82;20976;-40
2022/07/16 09:32:34;;;;;;;6.53;1.02;;;;;;;20.24;40.05;99156.34;1747869;82;21003;-39
2022/07/16 09:35:10;;;;;;;1.70;0.90;;;;;;;20.26;39.60;99150.35;1746686;81;21058;-39
2022/07/16 09:37:53;;;;;;;3.37;1.17;;;;;;;20.30;38.94;99145.08;1740893;82;21058;-41
2022/07/16 09:40:45;;;;;;;3.27;1.25;;;;;;;20.36;39.97;99142.80;1755848;81;20995;-44
2022/07/16 09:43:18;;;;;;;4.37;1.15;;;;;;;20.48;39.98;99146.91;1754341;81;21066;-41
2022/07/16 09:45:48;;;;;;;2.85;1.30;;;;;;;20.70;39.66;99136.28;1747629;81;21086;-39
2022/07/16 09:48:30;;;;;;;1.95;1.00;;;;;;;20.80;39.09;99134.89;1747974;82;20995;-41
2022/07/16 09:51:18;;;;;;;2.62;1.00;;;;;;;20.84;39.31;99134.41;1746098;81;21674;-42
2022/07/16 09:53:47;;;;;;;4.20;1.10;;;;;;;20.85;39.56;99126.75;1747466;82;21007;-42
2022/07/16 09:56:16;;;;;;;2.20;1.07;;;;;;;20.92;39.42;99124.30;1748062;81;21014;-45
2022/07/16 09:58:53;;;;;;;2.65;1.30;;;;;;;20.94;39.01;99126.79;1747856;82;20972;-41
2022/07/16 10:01:20;;;;;;;12.88;1.55;;;;;;;20.91;38.54;99113.25;1748052;81;21000;-41
2022/07/16 10:03:48;;;;;;;5.90;1.35;;;;;;;21.06;38.67;99122.38;1748154;81;21003;-41
2022/07/16 10:06:14;;;;;;;3.02;1.17;;;;;;;21.18;38.38;99116.80;1748060;81;21453;-42
2022/07/16 10:08:43;;;;;;;4.07;1.10;;;;;;;21.17;37.56;99107.08;1748348;81;21007;-40
2022/07/16 10:11:10;;;;;;;3.98;1.32;;;;;;;21.26;37.75;99111.48;1748113;81;20987;-43
2022/07/16 10:13:41;;;;;;;3.40;1.02;;;;;;;21.15;36.92;99106.41;1748065;81;21547;-41
2022/07/16 10:16:06;;;;;;;2.83;1.07;;;;;;;20.99;37.37;99105.31;1747950;81;20996;-40
2022/07/16 10:18:41;;;;;;;5.90;1.10;;;;;;;21.15;37.43;99121.11;1748054;81;21026;-41
2022/07/16 10:21:15;;;;;;;2.42;1.25;;;;;;;21.04;37.19;99105.66;1742316;81;20992;-42
2022/07/16 10:23:45;;;;;;;4.33;0.90;;;;;;;21.08;37.67;99104.37;1748112;81;20979;-42
2022/07/16 10:26:22;;;;;;;6.45;1.10;;;;;;;20.80;37.05;99094.80;1748100;82;21520;-41
2022/07/16 10:28:54;;;;;;;2.65;0.75;;;;;;;21.22;37.77;99090.07;1748136;82;21042;-38
2022/07/16 10:32:27;;;;;;;3.00;0.88;;;;;;;21.68;37.85;99089.31;1748021;81;21002;-40
2022/07/16 10:34:19;;;;;;;4.85;0.90;;;;;;;21.85;37.23;99085.71;1746063;82;20984;-42
2022/07/16 10:36:56;;;;;;;2.27;0.80;;;;;;;22.07;37.00;99087.45;1747977;81;20995;-42
2022/07/16 10:39:24;;;;;;;;;;;;;;;21.95;36.82;99082.89;1750723;81;21007;-42
2022/07/16 10:42:01;;;;;;;2.87;0.80;;;;;;;21.76;35.99;99081.84;1748051;81;20157;-42
2022/07/16 10:44:49;;;;;;;3.42;1.17;;;;;;;21.76;36.75;99077.32;1739572;80;21024;-41
2022/07/16 10:47:17;;;;;;;8.78;0.90;;;;;;;21.93;37.25;99073.36;1747965;81;20999;-44
2022/07/16 10:49:44;;;;;;;1.50;0.78;;;;;;;22.00;37.30;99073.87;1748035;81;20964;-43
2022/07/16 10:52:14;;;;;;;1.30;0.78;;;;;;;21.77;36.98;99077.64;1748306;81;21031;-40
2022/07/16 10:54:42;;;;;;;3.35;0.80;;;;;;;21.70;37.76;99064.56;1748046;81;20968;-45
2022/07/16 10:57:10;;;;;;;4.08;0.98;;;;;;;21.54;37.77;99067.18;1748030;81;20976;-43
2022/07/16 10:59:40;;;;;;;4.08;1.02;;;;;;;21.28;37.96;99062.68;1748061;81;21412;-43
2022/07/16 11:02:09;;;;;;;3.30;0.70;;;;;;;21.24;37.77;99068.02;1747975;81;21047;-42
2022/07/16 11:04:45;;;;;;;2.95;1.00;;;;;;;21.27;37.97;99065.86;1740641;81;21025;-45
2022/07/16 11:07:15;;;;;;;1.05;0.80;;;;;;;21.50;37.47;99067.17;1743670;81;21418;-42
2022/07/16 11:09:49;;;;;;;6.15;0.90;;;;;;;22.12;35.39;99069.06;1743854;81;20984;-48
2022/07/16 11:12:18;;;;;;;1.25;0.62;;;;;;;22.54;35.71;99069.47;1748137;81;21051;-39
2022/07/16 11:14:48;;;;;;;6.95;0.90;;;;;;;22.60;35.68;99066.10;1748258;81;20991;-40
2022/07/16 11:17:16;;;;;;;5.20;0.80;;;;;;;22.92;35.87;99063.56;1747189;81;20995;-46
2022/07/16 11:19:48;;;;;;;6.22;0.60;;;;;;;23.24;35.13;99064.03;1748083;81;21000;-38
2022/07/16 11:22:20;;;;;;;3.35;0.70;;;;;;;23.15;34.52;99066.41;1748096;82;20987;-41
2022/07/16 11:24:53;;;;;;;1.62;0.80;;;;;;;22.81;35.38;99068.28;1748150;81;21004;-42
2022/07/16 11:27:33;;;;;;;0.80;0.70;;;;;;;22.52;35.90;99050.52;1748109;81;21481;-42
2022/07/16 11:30:02;;;;;;;2.05;0.85;;;;;;;22.23;35.58;99045.97;1747912;81;21508;-41
2022/07/16 11:32:28;;;;;;;5.87;0.70;;;;;;;22.22;35.91;99042.11;1748144;81;20968;-42
2022/07/16 11:34:54;;;;;;;3.92;0.68;;;;;;;22.30;36.20;99047.49;1748449;81;21443;-42
2022/07/16 11:37:21;;;;;;;1.30;0.70;;;;;;;22.30;36.11;99046.16;1748012;81;21527;-40
2022/07/16 11:39:48;;;;;;;2.93;0.80;;;;;;;22.05;35.99;99035.39;1748582;81;20964;-44
2022/07/16 11:42:17;;;;;;;;;;;;;;;21.96;36.26;99043.59;1750634;82;21120;-42
2022/07/16 11:44:43;;;;;;;4.17;0.70;;;;;;;21.79;35.86;99053.39;1747456;80;20414;-40
2022/07/16 11:47:11;;;;;;;2.47;0.70;;;;;;;21.65;36.33;99052.20;1748099;81;21009;-42